Time;durP1;ratioP1;P1;durP2;ratioP2;P2;SDS_P1;SDS_P2;PMS_P1;PMS_P2;Temp;Humidity;BMP_temperature;BMP_pressure;BME280_temperature;BME280_humidity;BME280_pressure;Samples;Min_cycle;Max_cycle;Signal;HPM_P1;HPM_P2
2022/09/24 00:02:14;;;;;;;15.93;14.27;;;;;;;12.57;100.00;154587.50;5052111;28;20570;-73
2022/09/24 00:04:40;;;;;;;13.47;12.07;;;;;;;12.57;100.00;154588.81;5033333;28;20826;-73
2022/09/24 00:07:07;;;;;;;15.23;13.67;;;;;;;12.57;100.00;154587.50;5052795;28;20862;-73
2022/09/24 00:09:33;;;;;;;15.70;13.67;;;;;;;12.58;100.00;154590.06;5046164;28;20454;-73
2022/09/24 00:12:01;;;;;;;16.20;14.60;;;;;;;12.60;100.00;154595.28;5015518;28;20463;-73
2022/09/24 00:14:28;;;;;;;14.80;13.30;;;;;;;12.59;100.00;154594.00;5024890;28;20465;-73
2022/09/24 00:16:56;;;;;;;15.40;12.23;;;;;;;12.57;100.00;154587.50;5034834;28;20424;-73
2022/09/24 00:19:23;;;;;;;15.53;13.63;;;;;;;12.58;100.00;154590.06;5053423;28;20439;-73
2022/09/24 00:21:49;;;;;;;15.20;13.23;;;;;;;12.56;100.00;154586.19;5034652;28;20442;-73
2022/09/24 00:26:58;;;;;;;15.73;14.13;;;;;;;12.53;100.00;154577.09;5032655;28;20450;-73
2022/09/24 00:29:25;;;;;;;19.73;16.07;;;;;;;12.51;100.00;154571.94;5051739;28;20502;-73
2022/09/24 00:31:53;;;;;;;15.50;14.00;;;;;;;12.51;100.00;154573.25;5034711;28;20435;-73
2022/09/24 00:34:21;;;;;;;15.87;14.30;;;;;;;12.49;100.00;154566.75;5034345;28;20438;-73
2022/09/24 00:36:48;;;;;;;15.23;13.63;;;;;;;12.48;100.00;154565.44;5034361;28;20929;-73
2022/09/24 00:39:15;;;;;;;15.70;14.00;;;;;;;12.48;100.00;154565.44;5025263;28;20844;-73
2022/09/24 00:41:47;;;;;;;13.90;12.30;;;;;;;12.48;100.00;154564.16;5045674;28;20461;-73
2022/09/24 00:44:53;;;;;;;14.40;13.00;;;;;;;12.45;100.00;154556.34;5033071;28;20463;-73
2022/09/24 00:47:26;;;;;;;14.30;13.00;;;;;;;12.46;100.00;154558.97;5016848;28;20442;-73
2022/09/24 00:49:57;;;;;;;13.30;11.97;;;;;;;12.42;100.00;154548.56;5052213;28;20506;-73
2022/09/24 00:52:23;;;;;;;14.37;12.97;;;;;;;12.37;100.00;154535.59;5017859;28;20821;-73
2022/09/24 00:54:50;;;;;;;14.73;12.67;;;;;;;12.37;100.00;154535.59;5029415;28;20458;-73
2022/09/24 00:57:17;;;;;;;13.87;12.57;;;;;;;12.33;100.00;154525.25;5023253;28;20526;-73
2022/09/24 00:59:44;;;;;;;14.73;13.23;;;;;;;12.30;100.00;154518.78;5027593;28;20458;-73
2022/09/24 01:02:11;;;;;;;14.83;13.50;;;;;;;12.32;100.00;154522.66;5014084;28;20443;-73
2022/09/24 01:04:38;;;;;;;14.63;13.20;;;;;;;12.30;100.00;154517.47;5014574;28;20495;-73
2022/09/24 01:07:06;;;;;;;15.37;13.80;;;;;;;12.27;100.00;154509.69;5014157;28;21012;-73
2022/09/24 01:09:33;;;;;;;13.77;12.30;;;;;;;12.28;100.00;154512.31;5029533;28;20466;-73
2022/09/24 01:12:03;;;;;;;14.70;13.20;;;;;;;12.26;100.00;154508.38;5051659;28;20816;-73
2022/09/24 01:14:50;;;;;;;15.77;14.07;;;;;;;12.28;100.00;154512.31;5051432;28;20922;-73
2022/09/24 01:17:29;;;;;;;14.87;13.47;;;;;;;12.23;100.00;154501.91;5050919;28;20810;-73
2022/09/24 01:20:42;;;;;;;16.70;14.30;;;;;;;12.25;100.00;154504.50;5033122;28;20476;-73
2022/09/24 01:23:20;;;;;;;14.80;13.23;;;;;;;12.18;100.00;154488.94;4953765;28;20493;-73
2022/09/24 01:25:57;;;;;;;14.23;12.83;;;;;;;12.17;100.00;154486.38;4970108;28;20449;-73
2022/09/24 01:28:33;;;;;;;14.53;13.13;;;;;;;12.15;100.00;154481.16;4991510;28;20439;-73
2022/09/24 01:31:06;;;;;;;15.10;13.70;;;;;;;12.10;100.00;154468.19;5051769;28;20438;-73
2022/09/24 01:33:34;;;;;;;15.60;13.87;;;;;;;12.10;100.00;154468.19;5051140;28;20413;-73
2022/09/24 01:36:07;;;;;;;15.30;13.70;;;;;;;12.06;100.00;154457.84;5032355;28;20534;-73
2022/09/24 01:38:38;;;;;;;16.23;14.17;;;;;;;12.02;100.00;154447.44;5031657;28;20595;-73
2022/09/24 01:41:06;;;;;;;14.97;13.37;;;;;;;11.98;100.00;154437.09;5044924;28;20512;-73
2022/09/24 01:43:34;;;;;;;16.83;13.90;;;;;;;11.98;100.00;154437.09;5013639;28;20459;-73
2022/09/24 01:46:04;;;;;;;15.83;14.20;;;;;;;11.96;100.00;154430.63;5018989;28;20814;-74
2022/09/24 01:48:32;;;;;;;15.60;14.03;;;;;;;11.93;100.00;154424.16;5033437;28;20528;-73
2022/09/24 01:51:02;;;;;;;15.17;13.63;;;;;;;11.90;100.00;154415.06;5048741;28;20504;-73
2022/09/24 01:53:30;;;;;;;15.10;13.70;;;;;;;11.90;100.00;154415.06;5032162;28;20427;-73
2022/09/24 01:55:59;;;;;;;15.53;13.23;;;;;;;11.86;100.00;154404.72;5013158;28;20827;-73
2022/09/24 01:58:29;;;;;;;14.37;12.87;;;;;;;11.83;100.00;154398.22;5013357;28;20462;-73
2022/09/24 02:00:58;;;;;;;15.80;13.60;;;;;;;11.80;100.00;154389.16;5012737;28;20452;-73
2022/09/24 02:03:29;;;;;;;17.70;14.60;;;;;;;11.78;100.00;154383.97;5037106;28;20479;-73
2022/09/24 02:06:00;;;;;;;16.50;13.60;;;;;;;11.73;100.00;154372.28;5036960;28;20824;-73
2022/09/24 02:08:30;;;;;;;16.60;14.97;;;;;;;11.72;100.00;154368.41;5033450;28;20466;-73
2022/09/24 02:11:02;;;;;;;16.33;14.60;;;;;;;11.69;100.00;154361.94;5013463;28;20448;-73
2022/09/24 02:13:35;;;;;;;16.17;14.57;;;;;;;11.68;100.00;154357.97;5012816;28;21049;-73
2022/09/24 02:16:04;;;;;;;16.30;14.60;;;;;;;11.68;100.00;154359.28;5043506;28;20554;-73
2022/09/24 02:18:35;;;;;;;15.87;14.27;;;;;;;11.69;100.00;154360.63;5050375;28;20484;-73
2022/09/24 02:21:05;;;;;;;15.77;13.30;;;;;;;11.68;100.00;154359.28;5033043;28;20459;-75
2022/09/24 02:23:35;;;;;;;14.37;12.87;;;;;;;11.67;100.00;154355.41;5029261;28;21007;-74
2022/09/24 02:26:03;;;;;;;15.83;14.27;;;;;;;11.67;100.00;154356.72;5013512;28;20747;-75
2022/09/24 02:28:31;;;;;;;16.30;14.60;;;;;;;11.69;100.00;154361.94;5034531;28;20776;-75
2022/09/24 02:31:02;;;;;;;15.47;13.97;;;;;;;11.70;100.00;154364.53;5030891;28;20494;-75
2022/09/24 02:36:17;;;;;;;16.07;14.47;;;;;;;11.69;100.00;154360.63;5031591;28;20447;-73
2022/09/24 02:38:45;;;;;;;16.43;14.50;;;;;;;11.64;100.00;154348.94;5015536;28;20490;-75
2022/09/24 02:41:11;;;;;;;15.80;14.13;;;;;;;11.67;100.00;154356.72;5049906;28;20439;-74
2022/09/24 02:43:39;;;;;;;16.70;15.00;;;;;;;11.67;100.00;154356.72;5042012;28;20989;-75
2022/09/24 02:46:07;;;;;;;15.77;13.90;;;;;;;11.67;100.00;154356.72;5016776;28;20458;-75
2022/09/24 02:48:35;;;;;;;17.37;14.37;;;;;;;11.65;100.00;154351.50;5033039;28;20427;-74
2022/09/24 02:51:03;;;;;;;15.43;13.20;;;;;;;11.62;100.00;154345.00;5016368;28;20542;-75
2022/09/24 02:53:30;;;;;;;14.90;13.17;;;;;;;11.66;100.00;154352.78;5039045;28;20442;-75
2022/09/24 02:55:59;;;;;;;15.63;14.10;;;;;;;11.66;100.00;154352.78;5025446;28;20490;-74
2022/09/24 02:58:25;;;;;;;15.03;13.57;;;;;;;11.68;100.00;154357.97;5034499;28;20454;-74
2022/09/24 03:00:53;;;;;;;17.47;13.50;;;;;;;11.69;100.00;154361.94;5017009;28;20459;-75
2022/09/24 03:03:21;;;;;;;14.90;13.40;;;;;;;11.71;100.00;154367.09;5033892;28;20483;-75
2022/09/24 03:05:51;;;;;;;15.33;13.87;;;;;;;11.74;100.00;154373.59;5033741;28;20431;-74
2022/09/24 03:08:18;;;;;;;17.67;15.10;;;;;;;11.71;100.00;154367.09;5039401;28;20489;-75
2022/09/24 03:10:45;;;;;;;15.00;13.30;;;;;;;11.69;100.00;154361.94;5035560;28;20677;-75
2022/09/24 03:13:12;;;;;;;15.23;13.70;;;;;;;11.69;100.00;154361.94;5040174;28;20668;-74
2022/09/24 03:15:38;;;;;;;15.63;13.73;;;;;;;11.69;100.00;154361.94;5049320;28;20465;-75
2022/09/24 03:18:05;;;;;;;17.03;15.23;;;;;;;11.69;100.00;154361.94;5034125;28;20522;-74
2022/09/24 03:20:32;;;;;;;14.03;12.60;;;;;;;11.73;100.00;154371.03;5022915;28;20494;-75
2022/09/24 03:23:00;;;;;;;15.40;13.80;;;;;;;11.73;100.00;154372.28;5033459;28;20435;-75
2022/09/24 03:25:27;;;;;;;15.63;13.93;;;;;;;11.74;100.00;154373.59;5033526;28;20436;-74
2022/09/24 03:27:53;;;;;;;15.17;13.20;;;;;;;11.75;100.00;154377.50;5015464;28;20432;-75
2022/09/24 03:33:04;;;;;;;15.57;13.80;;;;;;;11.77;100.00;154382.66;5029449;28;20450;-75
2022/09/24 03:35:31;;;;;;;14.93;13.43;;;;;;;11.79;100.00;154387.84;5034447;28;20443;-75
2022/09/24 03:37:57;;;;;;;16.00;14.30;;;;;;;11.78;100.00;154385.22;5033330;28;20467;-75
2022/09/24 03:40:25;;;;;;;16.17;13.13;;;;;;;11.83;100.00;154396.94;5033538;28;20443;-74
2022/09/24 03:42:52;;;;;;;14.90;13.43;;;;;;;11.82;100.00;154394.31;5033162;28;20939;-74
2022/09/24 03:45:18;;;;;;;15.57;13.97;;;;;;;11.81;100.00;154393.00;5032978;28;20532;-75
2022/09/24 03:47:45;;;;;;;14.17;12.67;;;;;;;11.82;100.00;154395.63;5032974;28;20793;-75
2022/09/24 03:50:12;;;;;;;15.50;14.07;;;;;;;11.83;100.00;154398.22;5015479;28;20459;-75
2022/09/24 03:52:38;;;;;;;13.97;12.67;;;;;;;11.85;100.00;154403.41;5033890;28;20435;-75
2022/09/24 03:55:06;;;;;;;14.73;13.20;;;;;;;11.84;100.00;154400.78;5037701;28;20490;-75
2022/09/24 03:57:34;;;;;;;14.90;13.47;;;;;;;11.86;100.00;154404.72;4999022;28;20440;-74
2022/09/24 04:00:01;;;;;;;15.23;13.53;;;;;;;11.88;100.00;154411.19;5044341;28;20486;-74
2022/09/24 04:02:28;;;;;;;14.40;13.00;;;;;;;11.86;100.00;154405.97;5034442;28;20439;-74
2022/09/24 04:04:54;;;;;;;14.10;12.67;;;;;;;11.90;100.00;154416.38;5034446;28;20488;-75
2022/09/24 04:07:21;;;;;;;15.67;14.10;;;;;;;11.85;100.00;154403.41;5045938;28;20448;-74
2022/09/24 04:09:47;;;;;;;14.73;13.13;;;;;;;11.83;100.00;154396.94;5034458;28;20455;-74
2022/09/24 04:12:14;;;;;;;15.20;13.60;;;;;;;11.83;100.00;154398.22;5032590;28;20459;-75
2022/09/24 04:14:42;;;;;;;14.03;12.63;;;;;;;11.84;100.00;154400.78;5032846;28;20432;-75
2022/09/24 04:17:10;;;;;;;14.00;12.53;;;;;;;11.82;100.00;154395.63;5027132;28;20435;-75
2022/09/24 04:19:38;;;;;;;14.10;12.70;;;;;;;11.83;100.00;154398.22;5021437;28;20447;-74
2022/09/24 04:22:05;;;;;;;14.20;12.90;;;;;;;11.83;100.00;154396.94;5033959;28;20450;-74
2022/09/24 04:24:31;;;;;;;14.67;13.27;;;;;;;11.82;100.00;154395.63;5027088;28;20471;-74
2022/09/24 04:26:58;;;;;;;14.07;12.67;;;;;;;11.82;100.00;154395.63;5014905;28;21010;-74
2022/09/24 04:29:24;;;;;;;13.97;12.47;;;;;;;11.83;100.00;154398.22;5032196;28;20436;-74
2022/09/24 04:31:52;;;;;;;13.73;12.40;;;;;;;11.83;100.00;154398.22;5032045;28;20428;-75
2022/09/24 04:34:19;;;;;;;14.37;12.90;;;;;;;11.83;100.00;154398.22;5014085;28;20483;-75
2022/09/24 04:36:46;;;;;;;14.40;13.00;;;;;;;11.83;100.00;154396.94;5014021;28;20432;-75
2022/09/24 04:39:13;;;;;;;13.87;12.43;;;;;;;11.82;100.00;154395.63;5013992;28;20479;-75
2022/09/24 04:41:39;;;;;;;13.50;12.30;;;;;;;11.87;100.00;154408.56;5050178;28;20457;-74
2022/09/24 04:44:06;;;;;;;15.30;12.53;;;;;;;11.78;100.00;154385.22;5041253;28;20829;-75
2022/09/24 04:46:33;;;;;;;13.27;11.87;;;;;;;11.74;100.00;154373.59;5014565;28;20439;-75
2022/09/24 04:49:01;;;;;;;14.23;12.10;;;;;;;11.83;100.00;154398.22;5032270;28;20427;-75
2022/09/24 04:51:27;;;;;;;14.23;12.73;;;;;;;11.85;100.00;154403.41;5034185;28;20921;-75
2022/09/24 04:53:54;;;;;;;14.17;12.63;;;;;;;11.77;100.00;154381.38;5050079;28;20432;-75
2022/09/24 04:56:21;;;;;;;14.37;12.97;;;;;;;11.72;100.00;154369.72;5013773;28;20452;-75
2022/09/24 04:58:50;;;;;;;15.33;13.73;;;;;;;11.77;100.00;154382.66;5040280;28;20423;-75
2022/09/24 05:01:17;;;;;;;14.33;12.90;;;;;;;11.79;100.00;154387.84;5041877;28;20443;-75
2022/09/24 05:03:45;;;;;;;14.23;12.73;;;;;;;11.74;100.00;154373.59;5031305;28;20471;-75
2022/09/24 05:06:13;;;;;;;13.40;12.00;;;;;;;11.78;100.00;154385.22;5033540;28;20447;-75
2022/09/24 05:08:40;;;;;;;14.83;13.13;;;;;;;11.78;100.00;154383.97;5034930;28;20935;-74
2022/09/24 05:11:07;;;;;;;16.03;12.43;;;;;;;11.77;100.00;154382.66;5033501;28;20446;-75
2022/09/24 05:13:34;;;;;;;13.40;11.83;;;;;;;11.75;100.00;154377.50;5050849;28;20427;-74
2022/09/24 05:16:01;;;;;;;14.03;12.60;;;;;;;11.74;100.00;154373.59;5039999;28;20831;-74
2022/09/24 05:18:27;;;;;;;14.57;13.27;;;;;;;11.71;100.00;154367.09;5029629;28;20450;-74
2022/09/24 05:20:55;;;;;;;16.50;13.27;;;;;;;11.64;100.00;154348.94;5042535;28;20520;-74
2022/09/24 05:23:23;;;;;;;12.87;11.73;;;;;;;11.67;100.00;154356.72;5033282;28;20843;-74
2022/09/24 05:28:34;;;;;;;13.73;12.43;;;;;;;11.65;100.00;154350.22;5033579;28;20403;-74
2022/09/24 05:31:01;;;;;;;15.17;12.93;;;;;;;11.65;100.00;154351.50;5039340;28;20453;-75
2022/09/24 05:33:27;;;;;;;14.40;13.00;;;;;;;11.62;100.00;154343.75;5013989;28;20483;-73
2022/09/24 05:35:54;;;;;;;13.00;11.70;;;;;;;11.56;100.00;154328.19;5031617;28;20478;-74
2022/09/24 05:38:23;;;;;;;14.70;13.30;;;;;;;11.55;100.00;154325.59;5030745;28;20467;-74
2022/09/24 05:40:49;;;;;;;14.97;13.30;;;;;;;11.56;100.00;154328.19;5025501;28;20450;-74
2022/09/24 05:43:18;;;;;;;15.17;13.57;;;;;;;11.61;100.00;154341.16;5032800;28;20996;-74
2022/09/24 05:45:44;;;;;;;14.93;13.53;;;;;;;11.62;100.00;154345.00;5050400;28;20837;-74
2022/09/24 05:48:11;;;;;;;14.37;12.50;;;;;;;11.62;100.00;154345.00;5050218;28;20427;-74
2022/09/24 05:50:38;;;;;;;15.87;13.80;;;;;;;11.62;100.00;154345.00;5015502;28;20858;-74
2022/09/24 05:53:05;;;;;;;15.40;13.80;;;;;;;11.62;100.00;154343.75;5019257;28;20431;-74
2022/09/24 05:55:33;;;;;;;15.03;12.90;;;;;;;11.64;100.00;154348.94;5032736;28;20438;-74
2022/09/24 05:58:05;;;;;;;16.33;14.63;;;;;;;11.61;100.00;154341.16;5032637;28;20437;-74
2022/09/24 06:00:32;;;;;;;15.93;14.23;;;;;;;11.62;100.00;154343.75;5037243;28;20448;-74
2022/09/24 06:03:04;;;;;;;15.30;13.77;;;;;;;11.62;100.00;154343.75;5045909;28;20530;-74
2022/09/24 06:05:31;;;;;;;15.67;14.07;;;;;;;11.65;100.00;154350.22;5045278;28;20478;-74
2022/09/24 06:07:58;;;;;;;15.37;13.87;;;;;;;11.61;100.00;154341.16;5045978;28;20529;-74
2022/09/24 06:10:25;;;;;;;14.50;13.07;;;;;;;11.66;100.00;154354.09;5014561;28;20451;-74
2022/09/24 06:12:53;;;;;;;15.57;14.07;;;;;;;11.65;100.00;154350.22;5030687;28;20439;-74
2022/09/24 06:15:20;;;;;;;14.47;12.97;;;;;;;11.63;100.00;154346.31;5041588;28;20435;-74
2022/09/24 06:17:47;;;;;;;15.23;13.70;;;;;;;11.72;100.00;154369.72;5035182;28;20789;-74
2022/09/24 06:20:14;;;;;;;15.67;14.17;;;;;;;11.63;100.00;154347.63;5054483;28;20449;-74
2022/09/24 06:22:40;;;;;;;16.77;13.50;;;;;;;11.68;100.00;154359.28;5036732;28;20445;-74
2022/09/24 06:25:08;;;;;;;14.77;13.30;;;;;;;11.74;100.00;154374.88;5035762;28;20478;-74
2022/09/24 06:27:35;;;;;;;14.80;13.03;;;;;;;11.86;100.00;154404.72;5035995;28;20438;-74
2022/09/24 06:30:04;;;;;;;15.13;13.53;;;;;;;11.92;100.00;154420.22;5025452;28;20546;-74
2022/09/24 06:32:31;;;;;;;14.77;13.27;;;;;;;11.91;100.00;154417.66;5016970;28;20455;-74
2022/09/24 06:34:57;;;;;;;14.23;12.83;;;;;;;11.97;100.00;154434.50;5016681;28;20450;-74
2022/09/24 06:37:24;;;;;;;14.00;12.60;;;;;;;12.03;100.00;154448.75;5016466;28;20498;-74
2022/09/24 06:39:51;;;;;;;13.90;12.60;;;;;;;12.07;100.00;154460.41;5037498;28;20495;-74
2022/09/24 06:42:19;;;;;;;20.50;12.20;;;;;;;12.12;100.00;154473.41;5036685;28;20431;-74
2022/09/24 06:44:47;;;;;;;14.73;12.87;;;;;;;12.12;100.00;154473.41;5052400;28;20580;-74
2022/09/24 06:47:15;;;;;;;14.73;13.10;;;;;;;12.15;100.00;154479.91;5054247;28;20693;-74
2022/09/24 06:49:41;;;;;;;15.00;13.23;;;;;;;12.17;100.00;154486.38;5041148;28;20828;-74
2022/09/24 06:52:08;;;;;;;15.17;13.50;;;;;;;12.20;100.00;154494.13;5016619;28;20424;-74
2022/09/24 06:54:35;;;;;;;14.40;12.90;;;;;;;12.23;100.00;154499.34;5034071;28;20869;-74
2022/09/24 06:57:03;;;;;;;14.10;12.47;;;;;;;12.24;100.00;154503.19;5018887;28;20467;-74
2022/09/24 06:59:29;;;;;;;13.33;11.90;;;;;;;12.27;100.00;154509.69;5034736;28;20439;-74
2022/09/24 07:01:58;;;;;;;14.23;12.93;;;;;;;12.28;100.00;154513.59;5033373;28;20416;-74
2022/09/24 07:04:26;;;;;;;14.20;12.70;;;;;;;12.28;100.00;154512.31;5032063;28;20890;-74
2022/09/24 07:09:39;;;;;;;12.83;11.53;;;;;;;12.38;100.00;154538.22;5023228;28;20465;-74
2022/09/24 07:12:07;;;;;;;14.00;12.60;;;;;;;12.42;100.00;154549.88;5054104;28;20442;-74
2022/09/24 07:14:34;;;;;;;13.13;11.73;;;;;;;12.45;100.00;154557.66;5028567;28;20447;-74
2022/09/24 07:17:01;;;;;;;15.13;12.50;;;;;;;12.51;100.00;154571.94;5034272;28;20451;-74
2022/09/24 07:19:29;;;;;;;18.07;11.93;;;;;;;12.56;100.00;154586.19;5016402;28;20443;-74
2022/09/24 07:21:56;;;;;;;14.00;11.70;;;;;;;12.60;100.00;154596.56;5053444;28;20458;-74
2022/09/24 07:24:23;;;;;;;13.60;12.30;;;;;;;12.66;100.00;154610.81;5029079;28;20462;-74
2022/09/24 07:26:49;;;;;;;14.13;11.20;;;;;;;12.70;100.00;154622.53;5036248;28;20435;-74
2022/09/24 07:29:16;;;;;;;12.80;11.50;;;;;;;12.76;100.00;154638.06;5053965;28;20435;-74
2022/09/24 07:31:43;;;;;;;12.63;11.33;;;;;;;12.79;100.00;154644.53;5019486;28;20463;-75
2022/09/24 07:34:10;;;;;;;12.30;11.10;;;;;;;12.84;100.00;154658.81;5033889;28;20447;-74
2022/09/24 07:36:38;;;;;;;11.70;10.50;;;;;;;12.87;100.00;154665.28;5016986;28;20926;-74
2022/09/24 07:39:04;;;;;;;12.73;11.03;;;;;;;12.91;100.00;154675.69;5033990;28;20474;-74
2022/09/24 07:41:31;;;;;;;15.27;13.03;;;;;;;12.96;100.00;154688.66;5052363;28;20435;-75
2022/09/24 07:43:58;;;;;;;14.23;12.80;;;;;;;13.00;100.00;154699.03;5038551;28;20452;-74
2022/09/24 07:46:25;;;;;;;13.77;12.40;;;;;;;13.04;100.00;154708.13;5034779;28;20463;-74
2022/09/24 07:48:53;;;;;;;15.93;11.93;;;;;;;13.07;100.00;154715.97;5044523;28;20490;-74
2022/09/24 07:51:19;;;;;;;12.97;11.63;;;;;;;13.13;100.00;154732.78;5035329;28;20722;-74
2022/09/24 07:53:47;;;;;;;14.63;11.10;;;;;;;13.16;100.00;154740.59;5035213;28;20469;-74
2022/09/24 07:56:14;;;;;;;13.30;10.23;;;;;;;13.21;100.00;154752.31;5053100;28;20423;-74
2022/09/24 07:58:41;;;;;;;11.33;10.17;;;;;;;13.25;100.00;154763.97;5053313;28;20502;-74
2022/09/24 08:01:07;;;;;;;12.53;11.33;;;;;;;13.32;100.00;154780.81;5052817;28;20514;-74
2022/09/24 08:03:34;;;;;;;11.80;10.63;;;;;;;13.37;100.00;154793.78;5016914;28;20555;-74
2022/09/24 08:06:01;;;;;;;11.20;10.10;;;;;;;13.42;100.00;154808.06;5025055;28;20459;-74
2022/09/24 08:08:28;;;;;;;14.13;11.93;;;;;;;13.50;100.00;154826.25;5052341;28;20830;-74
2022/09/24 08:10:56;;;;;;;13.77;12.33;;;;;;;13.55;100.00;154839.22;5050797;28;20435;-74
2022/09/24 08:13:22;;;;;;;16.33;13.50;;;;;;;13.58;100.00;154848.28;5035339;28;20488;-74
2022/09/24 08:15:56;;;;;;;14.63;12.27;;;;;;;13.66;100.00;154869.06;5033794;28;20432;-74
2022/09/24 08:18:23;;;;;;;15.90;13.90;;;;;;;13.72;100.00;154884.63;5051910;28;20443;-75
2022/09/24 08:20:49;;;;;;;15.00;13.37;;;;;;;13.77;100.00;154896.31;5045086;28;20431;-74
2022/09/24 08:23:16;;;;;;;16.03;13.30;;;;;;;13.81;100.00;154906.72;5029497;28;20444;-74
2022/09/24 08:25:43;;;;;;;13.80;12.40;;;;;;;13.87;100.00;154922.31;5019176;28;20558;-74
2022/09/24 08:28:11;;;;;;;15.03;12.73;;;;;;;13.89;100.00;154927.50;5034473;28;20493;-74
2022/09/24 08:30:38;;;;;;;13.03;11.40;;;;;;;13.95;100.00;154943.09;5028711;28;20855;-74
2022/09/24 08:33:06;;;;;;;14.63;12.10;;;;;;;13.99;100.00;154953.44;5035021;28;20431;-74
2022/09/24 08:35:33;;;;;;;18.30;13.93;;;;;;;14.08;100.00;154976.84;5051190;28;20938;-74
2022/09/24 08:38:00;;;;;;;20.07;16.73;;;;;;;14.19;100.00;155004.09;5053052;28;20459;-75
2022/09/24 08:40:28;;;;;;;17.77;14.50;;;;;;;14.26;100.00;155023.56;5049346;28;20474;-74
2022/09/24 08:43:00;;;;;;;16.30;10.80;;;;;;;14.35;100.00;155046.97;5019328;28;20916;-74
2022/09/24 08:48:14;;;;;;;10.37;9.37;;;;;;;14.53;100.00;155092.47;5047517;28;20466;-74
2022/09/24 08:50:48;;;;;;;12.97;10.53;;;;;;;14.61;100.00;155114.50;5029305;28;20462;-74
2022/09/24 08:53:17;;;;;;;10.00;9.00;;;;;;;14.71;100.00;155137.91;5048568;28;20451;-74
2022/09/24 08:55:47;;;;;;;9.47;8.57;;;;;;;14.77;100.00;155154.81;5045213;28;21021;-74
2022/09/24 08:58:26;;;;;;;9.27;8.43;;;;;;;14.88;100.00;155183.34;5050745;28;20489;-75
2022/09/24 09:01:01;;;;;;;10.63;9.40;;;;;;;15.07;100.00;155231.41;5036540;28;20535;-74
2022/09/24 09:03:35;;;;;;;8.50;7.70;;;;;;;15.24;100.00;155275.63;5038664;28;20446;-74
2022/09/24 09:06:03;;;;;;;10.13;9.13;;;;;;;15.40;100.00;155317.22;5037842;28;20553;-74
2022/09/24 09:08:40;;;;;;;11.73;10.30;;;;;;;15.46;98.67;155332.81;5045484;28;20485;-74
2022/09/24 09:11:08;;;;;;;9.37;8.43;;;;;;;15.59;98.10;155366.66;5035481;28;20450;-74
2022/09/24 09:13:39;;;;;;;9.27;8.47;;;;;;;15.57;97.41;155361.44;5031106;28;20650;-75
2022/09/24 09:16:25;;;;;;;8.70;7.90;;;;;;;15.59;97.58;155366.66;5019232;28;20469;-82
2022/09/24 09:18:55;;;;;;;6.90;6.20;;;;;;;15.72;95.96;155400.47;5045411;28;20531;-74
2022/09/24 09:21:28;;;;;;;9.50;7.97;;;;;;;15.79;96.91;155418.63;5051951;28;20430;-82
2022/09/24 09:23:59;;;;;;;7.77;6.97;;;;;;;15.89;95.53;155442.00;5033601;28;20450;-82
2022/09/24 09:26:26;;;;;;;10.47;6.43;;;;;;;15.87;95.69;155436.81;5051679;28;20466;-82
2022/09/24 09:28:56;;;;;;;7.37;6.17;;;;;;;15.86;96.56;155435.50;5034608;28;20822;-82
2022/09/24 09:31:32;;;;;;;6.90;5.60;;;;;;;15.80;96.27;155421.25;5019999;28;20444;-82
2022/09/24 09:34:21;;;;;;;7.33;6.20;;;;;;;15.75;97.69;155406.97;5017804;28;20461;-82
2022/09/24 09:36:58;;;;;;;6.60;6.00;;;;;;;15.74;99.23;155404.34;5032693;28;20942;-75
2022/09/24 09:39:38;;;;;;;6.00;5.50;;;;;;;15.69;98.97;155392.66;5034736;28;20459;-82
2022/09/24 09:42:15;;;;;;;6.20;5.60;;;;;;;15.62;99.20;155373.16;5050842;28;20454;-75
2022/09/24 09:44:43;;;;;;;6.70;6.10;;;;;;;15.56;99.01;155358.84;5025334;28;20522;-75
2022/09/24 09:47:19;;;;;;;6.60;5.93;;;;;;;15.50;100.00;155343.25;5033180;28;20470;-75
2022/09/24 09:49:49;;;;;;;6.10;5.60;;;;;;;15.52;100.00;155348.44;5045768;28;20438;-74
2022/09/24 09:52:19;;;;;;;7.30;5.70;;;;;;;15.51;98.77;155344.56;5036711;28;20578;-74
2022/09/24 09:54:47;;;;;;;6.63;6.03;;;;;;;15.47;99.06;155335.44;5013204;28;20439;-74
2022/09/24 09:57:17;;;;;;;5.97;5.37;;;;;;;15.52;98.62;155347.13;5023011;28;20455;-74
2022/09/24 09:59:46;;;;;;;6.40;5.80;;;;;;;15.49;99.31;155340.63;5041633;28;20440;-74
2022/09/24 10:02:21;;;;;;;6.70;6.10;;;;;;;15.54;98.63;155353.63;5030642;28;20438;-74
2022/09/24 10:04:53;;;;;;;8.10;7.27;;;;;;;15.48;99.37;155338.06;5021449;28;20876;-74
2022/09/24 10:07:19;;;;;;;6.77;6.17;;;;;;;15.48;99.58;155338.06;5049452;28;20513;-74
2022/09/24 10:09:46;;;;;;;6.60;6.07;;;;;;;15.52;100.00;155348.44;5050260;28;20427;-75
2022/09/24 10:12:16;;;;;;;6.67;5.90;;;;;;;15.54;100.00;155353.63;5032464;28;20779;-74
2022/09/24 10:14:44;;;;;;;6.87;6.27;;;;;;;15.56;100.00;155358.84;5032699;28;20949;-75
2022/09/24 10:17:13;;;;;;;5.80;5.30;;;;;;;15.57;100.00;155361.44;5041387;28;20444;-75
2022/09/24 10:19:42;;;;;;;7.30;6.30;;;;;;;15.61;100.00;155371.84;5037287;28;20434;-74
2022/09/24 10:22:14;;;;;;;5.97;5.40;;;;;;;15.62;100.00;155374.41;5036652;28;20443;-74
2022/09/24 10:24:42;;;;;;;6.73;6.03;;;;;;;15.63;100.00;155377.03;5035477;28;20444;-75
2022/09/24 10:27:13;;;;;;;6.80;6.20;;;;;;;15.69;100.00;155391.34;5014554;28;20479;-74
2022/09/24 10:32:25;;;;;;;6.40;5.80;;;;;;;15.72;100.00;155400.47;5046891;28;20942;-74
2022/09/24 10:34:58;;;;;;;5.37;4.87;;;;;;;15.73;100.00;155403.03;5029210;28;20962;-74
2022/09/24 10:37:25;;;;;;;5.20;4.70;;;;;;;15.78;100.00;155414.72;4995926;28;20483;-75
2022/09/24 10:40:00;;;;;;;5.10;4.60;;;;;;;15.74;100.00;155404.34;5013219;28;20487;-75
2022/09/24 10:42:28;;;;;;;6.70;5.80;;;;;;;15.73;100.00;155401.72;5031461;28;20455;-75
2022/09/24 10:44:57;;;;;;;5.23;4.60;;;;;;;15.69;100.00;155392.66;5012952;28;20494;-74
2022/09/24 10:47:28;;;;;;;5.20;4.67;;;;;;;15.71;100.00;155397.84;5030529;28;20809;-75
2022/09/24 10:50:16;;;;;;;5.80;5.23;;;;;;;15.75;100.00;155408.22;5029986;28;20451;-75
2022/09/24 10:52:46;;;;;;;5.00;4.50;;;;;;;15.77;100.00;155412.13;5031341;28;20464;-75
2022/09/24 10:55:19;;;;;;;4.80;4.40;;;;;;;15.72;100.00;155400.47;5018809;28;20447;-75
2022/09/24 10:57:56;;;;;;;4.40;4.00;;;;;;;15.66;100.00;155384.84;5039492;28;20442;-75
2022/09/24 11:00:23;;;;;;;4.87;4.47;;;;;;;15.64;100.00;155378.34;5033566;28;20439;-75
2022/09/24 11:03:18;;;;;;;6.07;4.80;;;;;;;15.56;100.00;155357.56;5016343;28;20496;-75
2022/09/24 11:05:52;;;;;;;5.90;4.60;;;;;;;15.44;100.00;155327.59;5067513;28;20481;-75
2022/09/24 11:08:27;;;;;;;5.60;5.10;;;;;;;15.36;100.00;155306.78;5061003;28;20504;-74
2022/09/24 11:11:08;;;;;;;6.50;5.90;;;;;;;15.31;100.00;155293.78;5052643;28;20474;-75
2022/09/24 11:13:40;;;;;;;9.70;5.93;;;;;;;15.21;100.00;155267.81;5047728;28;20445;-74
2022/09/24 11:16:26;;;;;;;6.10;5.60;;;;;;;15.18;100.00;155260.00;5046572;28;20490;-74
2022/09/24 11:18:56;;;;;;;8.13;7.43;;;;;;;15.17;100.00;155257.41;5056502;28;20834;-74
2022/09/24 11:21:33;;;;;;;7.33;6.63;;;;;;;15.12;100.00;155244.41;5035887;28;20435;-75
2022/09/24 11:24:11;;;;;;;6.17;5.53;;;;;;;15.18;100.00;155261.31;5054071;28;20544;-75
2022/09/24 11:26:47;;;;;;;5.50;5.00;;;;;;;15.06;100.00;155228.84;5052110;28;20910;-75
2022/09/24 11:29:27;;;;;;;5.67;5.17;;;;;;;15.03;100.00;155221.03;5022231;28;20477;-75
2022/09/24 11:32:05;;;;;;;5.63;5.00;;;;;;;15.05;100.00;155226.22;5034418;28;20455;-75
2022/09/24 11:34:45;;;;;;;5.83;5.23;;;;;;;15.08;100.00;155234.03;5031134;28;20864;-75